sensor_id;sensor_type;location;lat;lon;timestamp;temperature;humidity
11501;DHT22;5807;51.606;7.624;2022-12-10T00:01:14;0.10;99.90
11501;DHT22;5807;51.606;7.624;2022-12-10T00:03:43;1.70;99.90
11501;DHT22;5807;51.606;7.624;2022-12-10T00:06:11;-0.20;99.90
11501;DHT22;5807;51.606;7.624;2022-12-10T00:08:39;-0.20;99.90
11501;DHT22;5807;51.606;7.624;2022-12-10T00:11:08;-0.20;99.90
11501;DHT22;5807;51.606;7.624;2022-12-10T00:13:36;1.60;99.90
11501;DHT22;5807;51.606;7.624;2022-12-10T00:16:05;0.20;99.90
11501;DHT22;5807;51.606;7.624;2022-12-10T00:18:32;0.10;99.90
11501;DHT22;5807;51.606;7.624;2022-12-10T00:21:04;2.50;99.90
11501;DHT22;5807;51.606;7.624;2022-12-10T00:23:31;0.10;99.90
11501;DHT22;5807;51.606;7.624;2022-12-10T00:26:23;-0.30;99.90
11501;DHT22;5807;51.606;7.624;2022-12-10T00:28:51;0.10;99.90
11501;DHT22;5807;51.606;7.624;2022-12-10T00:31:20;-0.20;99.90
11501;DHT22;5807;51.606;7.624;2022-12-10T00:33:48;-0.40;99.90
11501;DHT22;5807;51.606;7.624;2022-12-10T00:36:19;0.10;99.90
11501;DHT22;5807;51.606;7.624;2022-12-10T00:38:47;0.10;99.90
11501;DHT22;5807;51.606;7.624;2022-12-10T00:41:15;0.20;99.90
11501;DHT22;5807;51.606;7.624;2022-12-10T00:43:43;0.20;99.90
11501;DHT22;5807;51.606;7.624;2022-12-10T00:46:11;0.20;99.90
11501;DHT22;5807;51.606;7.624;2022-12-10T00:48:38;-0.10;99.90
11501;DHT22;5807;51.606;7.624;2022-12-10T00:51:08;2.20;99.90
11501;DHT22;5807;51.606;7.624;2022-12-10T00:53:37;0.20;99.90
11501;DHT22;5807;51.606;7.624;2022-12-10T00:56:06;0.20;99.90
11501;DHT22;5807;51.606;7.624;2022-12-10T00:58:35;0.20;99.90
11501;DHT22;5807;51.606;7.624;2022-12-10T01:01:11;0.20;99.90
11501;DHT22;5807;51.606;7.624;2022-12-10T01:03:38;0.20;99.90
11501;DHT22;5807;51.606;7.624;2022-12-10T01:06:10;-0.40;99.90
11501;DHT22;5807;51.606;7.624;2022-12-10T01:08:39;1.20;99.90
11501;DHT22;5807;51.606;7.624;2022-12-10T01:11:07;0.60;99.90
11501;DHT22;5807;51.606;7.624;2022-12-10T01:13:35;0.20;99.90
11501;DHT22;5807;51.606;7.624;2022-12-10T01:16:02;0.30;99.90
11501;DHT22;5807;51.606;7.624;2022-12-10T01:18:30;0.30;99.90
11501;DHT22;5807;51.606;7.624;2022-12-10T01:21:00;-0.20;99.90
11501;DHT22;5807;51.606;7.624;2022-12-10T01:30:55;0.40;99.90
11501;DHT22;5807;51.606;7.624;2022-12-10T01:33:25;0.40;99.90
11501;DHT22;5807;51.606;7.624;2022-12-10T01:35:52;0.40;99.90
11501;DHT22;5807;51.606;7.624;2022-12-10T01:43:15;0.40;99.90
11501;DHT22;5807;51.606;7.624;2022-12-10T01:45:42;0.50;99.90
11501;DHT22;5807;51.606;7.624;2022-12-10T01:48:09;0.00;99.90
11501;DHT22;5807;51.606;7.624;2022-12-10T01:50:36;-0.20;99.90
11501;DHT22;5807;51.606;7.624;2022-12-10T01:53:03;1.60;99.90
11501;DHT22;5807;51.606;7.624;2022-12-10T01:55:43;0.60;99.90
11501;DHT22;5807;51.606;7.624;2022-12-10T01:58:13;0.60;99.90
11501;DHT22;5807;51.606;7.624;2022-12-10T02:00:49;-0.70;99.90
11501;DHT22;5807;51.606;7.624;2022-12-10T02:03:21;2.20;99.90
11501;DHT22;5807;51.606;7.624;2022-12-10T02:05:58;0.50;99.90
11501;DHT22;5807;51.606;7.624;2022-12-10T02:08:35;0.50;99.90
11501;DHT22;5807;51.606;7.624;2022-12-10T02:11:10;0.50;99.90
11501;DHT22;5807;51.606;7.624;2022-12-10T02:13:44;0.00;99.90
11501;DHT22;5807;51.606;7.624;2022-12-10T02:16:15;0.50;99.90
11501;DHT22;5807;51.606;7.624;2022-12-10T02:18:48;0.60;99.90
11501;DHT22;5807;51.606;7.624;2022-12-10T02:21:21;0.60;99.90
11501;DHT22;5807;51.606;7.624;2022-12-10T02:23:53;0.50;99.90
11501;DHT22;5807;51.606;7.624;2022-12-10T02:26:24;0.50;99.90
11501;DHT22;5807;51.606;7.624;2022-12-10T02:29:01;-0.10;99.90
11501;DHT22;5807;51.606;7.624;2022-12-10T02:31:32;1.70;99.90
11501;DHT22;5807;51.606;7.624;2022-12-10T02:34:02;0.60;99.90
11501;DHT22;5807;51.606;7.624;2022-12-10T02:36:35;0.60;99.90
11501;DHT22;5807;51.606;7.624;2022-12-10T02:39:07;0.60;99.90
11501;DHT22;5807;51.606;7.624;2022-12-10T02:41:39;0.60;99.90
11501;DHT22;5807;51.606;7.624;2022-12-10T02:44:32;0.60;99.90
11501;DHT22;5807;51.606;7.624;2022-12-10T02:47:01;0.60;99.90
11501;DHT22;5807;51.606;7.624;2022-12-10T02:49:30;0.50;99.90
11501;DHT22;5807;51.606;7.624;2022-12-10T02:51:57;0.20;99.90
11501;DHT22;5807;51.606;7.624;2022-12-10T02:54:39;0.60;99.90
11501;DHT22;5807;51.606;7.624;2022-12-10T02:57:26;0.60;99.90
11501;DHT22;5807;51.606;7.624;2022-12-10T03:00:06;0.60;99.90
11501;DHT22;5807;51.606;7.624;2022-12-10T03:02:40;0.60;99.90
11501;DHT22;5807;51.606;7.624;2022-12-10T03:05:23;0.20;99.90
11501;DHT22;5807;51.606;7.624;2022-12-10T03:07:56;0.00;99.90
11501;DHT22;5807;51.606;7.624;2022-12-10T03:10:28;0.50;99.90
11501;DHT22;5807;51.606;7.624;2022-12-10T03:12:59;0.60;99.90
11501;DHT22;5807;51.606;7.624;2022-12-10T03:15:31;0.60;99.90
11501;DHT22;5807;51.606;7.624;2022-12-10T03:18:02;0.10;99.90
11501;DHT22;5807;51.606;7.624;2022-12-10T03:20:31;2.70;99.90
11501;DHT22;5807;51.606;7.624;2022-12-10T03:22:59;0.60;99.90
11501;DHT22;5807;51.606;7.624;2022-12-10T03:25:28;0.70;99.90
11501;DHT22;5807;51.606;7.624;2022-12-10T03:27:58;0.60;99.90
11501;DHT22;5807;51.606;7.624;2022-12-10T03:30:25;0.60;99.90
11501;DHT22;5807;51.606;7.624;2022-12-10T03:35:23;0.70;99.90
11501;DHT22;5807;51.606;7.624;2022-12-10T03:37:51;0.70;99.90
11501;DHT22;5807;51.606;7.624;2022-12-10T03:40:22;0.80;99.90
11501;DHT22;5807;51.606;7.624;2022-12-10T03:42:49;0.70;99.90
11501;DHT22;5807;51.606;7.624;2022-12-10T03:45:17;0.70;99.90
11501;DHT22;5807;51.606;7.624;2022-12-10T03:47:43;0.70;99.90
11501;DHT22;5807;51.606;7.624;2022-12-10T03:50:15;0.70;99.90
11501;DHT22;5807;51.606;7.624;2022-12-10T03:52:42;0.70;99.90
11501;DHT22;5807;51.606;7.624;2022-12-10T03:55:09;0.60;99.90
11501;DHT22;5807;51.606;7.624;2022-12-10T03:57:36;0.60;99.90
11501;DHT22;5807;51.606;7.624;2022-12-10T04:00:04;2.00;99.90
11501;DHT22;5807;51.606;7.624;2022-12-10T04:02:31;0.70;99.90
11501;DHT22;5807;51.606;7.624;2022-12-10T04:05:17;2.20;99.90
11501;DHT22;5807;51.606;7.624;2022-12-10T04:07:44;0.60;99.90
11501;DHT22;5807;51.606;7.624;2022-12-10T04:10:10;0.60;99.90
11501;DHT22;5807;51.606;7.624;2022-12-10T04:12:38;0.40;99.90
11501;DHT22;5807;51.606;7.624;2022-12-10T04:15:06;2.30;99.90
11501;DHT22;5807;51.606;7.624;2022-12-10T04:17:50;0.60;99.90
11501;DHT22;5807;51.606;7.624;2022-12-10T04:20:19;1.40;99.90
11501;DHT22;5807;51.606;7.624;2022-12-10T04:23:04;0.10;99.90
11501;DHT22;5807;51.606;7.624;2022-12-10T04:25:47;0.70;99.90
11501;DHT22;5807;51.606;7.624;2022-12-10T04:28:32;0.60;99.90
11501;DHT22;5807;51.606;7.624;2022-12-10T04:30:58;0.30;99.90
11501;DHT22;5807;51.606;7.624;2022-12-10T04:33:25;0.60;99.90
11501;DHT22;5807;51.606;7.624;2022-12-10T04:35:54;0.70;99.90
11501;DHT22;5807;51.606;7.624;2022-12-10T04:38:20;0.60;99.90
11501;DHT22;5807;51.606;7.624;2022-12-10T04:40:47;0.70;99.90
11501;DHT22;5807;51.606;7.624;2022-12-10T04:43:14;0.70;99.90
11501;DHT22;5807;51.606;7.624;2022-12-10T04:45:41;0.60;99.90
11501;DHT22;5807;51.606;7.624;2022-12-10T04:48:08;0.70;99.90
11501;DHT22;5807;51.606;7.624;2022-12-10T04:50:35;1.40;99.90
11501;DHT22;5807;51.606;7.624;2022-12-10T04:53:03;0.00;99.90
11501;DHT22;5807;51.606;7.624;2022-12-10T04:55:30;0.20;99.90
11501;DHT22;5807;51.606;7.624;2022-12-10T04:57:57;0.70;99.90
11501;DHT22;5807;51.606;7.624;2022-12-10T05:00:24;0.10;99.90
11501;DHT22;5807;51.606;7.624;2022-12-10T05:02:51;0.30;99.90
11501;DHT22;5807;51.606;7.624;2022-12-10T05:05:19;0.60;99.90
11501;DHT22;5807;51.606;7.624;2022-12-10T05:07:46;0.60;99.90
11501;DHT22;5807;51.606;7.624;2022-12-10T05:10:14;0.40;99.90
11501;DHT22;5807;51.606;7.624;2022-12-10T05:12:41;-0.30;99.90
11501;DHT22;5807;51.606;7.624;2022-12-10T05:15:09;0.10;99.90
11501;DHT22;5807;51.606;7.624;2022-12-10T05:17:36;0.50;99.90
11501;DHT22;5807;51.606;7.624;2022-12-10T05:20:03;2.20;99.90
11501;DHT22;5807;51.606;7.624;2022-12-10T05:22:30;0.60;99.90
11501;DHT22;5807;51.606;7.624;2022-12-10T05:25:16;0.10;99.90
11501;DHT22;5807;51.606;7.624;2022-12-10T05:27:43;0.10;99.90
11501;DHT22;5807;51.606;7.624;2022-12-10T05:30:10;0.20;99.90
11501;DHT22;5807;51.606;7.624;2022-12-10T05:32:37;0.20;99.90
11501;DHT22;5807;51.606;7.624;2022-12-10T05:35:07;0.30;99.90
11501;DHT22;5807;51.606;7.624;2022-12-10T05:37:34;0.50;99.90
11501;DHT22;5807;51.606;7.624;2022-12-10T05:40:00;0.40;99.90
11501;DHT22;5807;51.606;7.624;2022-12-10T05:42:29;0.40;99.90
11501;DHT22;5807;51.606;7.624;2022-12-10T05:44:56;0.40;99.90
11501;DHT22;5807;51.606;7.624;2022-12-10T05:47:23;0.40;99.90
11501;DHT22;5807;51.606;7.624;2022-12-10T05:49:49;0.40;99.90
11501;DHT22;5807;51.606;7.624;2022-12-10T05:52:16;0.40;99.90
11501;DHT22;5807;51.606;7.624;2022-12-10T05:54:43;0.40;99.90
11501;DHT22;5807;51.606;7.624;2022-12-10T05:57:10;0.40;99.90
11501;DHT22;5807;51.606;7.624;2022-12-10T05:59:38;0.40;99.90
11501;DHT22;5807;51.606;7.624;2022-12-10T06:02:05;0.20;99.90
11501;DHT22;5807;51.606;7.624;2022-12-10T06:04:50;0.50;99.90
11501;DHT22;5807;51.606;7.624;2022-12-10T06:07:17;0.10;99.90
11501;DHT22;5807;51.606;7.624;2022-12-10T06:09:44;0.90;99.90
11501;DHT22;5807;51.606;7.624;2022-12-10T06:12:11;0.40;99.90
11501;DHT22;5807;51.606;7.624;2022-12-10T06:14:39;0.10;99.90
11501;DHT22;5807;51.606;7.624;2022-12-10T06:19:33;0.40;99.90
11501;DHT22;5807;51.606;7.624;2022-12-10T06:22:00;2.10;99.90
11501;DHT22;5807;51.606;7.624;2022-12-10T06:24:28;0.30;99.90
11501;DHT22;5807;51.606;7.624;2022-12-10T06:26:56;1.40;99.90
11501;DHT22;5807;51.606;7.624;2022-12-10T06:29:23;0.20;99.90
11501;DHT22;5807;51.606;7.624;2022-12-10T06:31:59;1.60;99.90
11501;DHT22;5807;51.606;7.624;2022-12-10T06:34:26;0.50;99.90
11501;DHT22;5807;51.606;7.624;2022-12-10T06:36:53;0.40;99.90
11501;DHT22;5807;51.606;7.624;2022-12-10T06:39:20;0.30;99.90
11501;DHT22;5807;51.606;7.624;2022-12-10T06:41:47;0.40;99.90
11501;DHT22;5807;51.606;7.624;2022-12-10T06:44:14;0.30;99.90
11501;DHT22;5807;51.606;7.624;2022-12-10T06:46:41;0.20;99.90
11501;DHT22;5807;51.606;7.624;2022-12-10T06:49:10;0.90;99.90
11501;DHT22;5807;51.606;7.624;2022-12-10T06:51:37;0.30;99.90
11501;DHT22;5807;51.606;7.624;2022-12-10T06:54:04;0.30;99.90
11501;DHT22;5807;51.606;7.624;2022-12-10T06:56:31;-0.40;99.90
11501;DHT22;5807;51.606;7.624;2022-12-10T06:59:11;0.20;99.90
11501;DHT22;5807;51.606;7.624;2022-12-10T07:01:38;0.50;99.90
11501;DHT22;5807;51.606;7.624;2022-12-10T07:04:05;0.00;99.90
11501;DHT22;5807;51.606;7.624;2022-12-10T07:06:33;1.40;99.90
11501;DHT22;5807;51.606;7.624;2022-12-10T07:09:00;1.60;99.90
11501;DHT22;5807;51.606;7.624;2022-12-10T07:11:27;-0.30;99.90
11501;DHT22;5807;51.606;7.624;2022-12-10T07:13:56;-0.20;99.90
11501;DHT22;5807;51.606;7.624;2022-12-10T07:16:24;0.10;99.90
11501;DHT22;5807;51.606;7.624;2022-12-10T07:18:52;-0.20;99.90
11501;DHT22;5807;51.606;7.624;2022-12-10T07:21:22;0.00;99.90
11501;DHT22;5807;51.606;7.624;2022-12-10T07:24:02;-0.10;99.90
11501;DHT22;5807;51.606;7.624;2022-12-10T07:26:33;-0.40;99.90
11501;DHT22;5807;51.606;7.624;2022-12-10T07:29:00;-0.60;99.90
11501;DHT22;5807;51.606;7.624;2022-12-10T07:31:27;2.30;99.90
11501;DHT22;5807;51.606;7.624;2022-12-10T07:33:54;-0.30;99.90
11501;DHT22;5807;51.606;7.624;2022-12-10T07:36:24;-0.30;99.90
11501;DHT22;5807;51.606;7.624;2022-12-10T07:38:51;-0.40;99.90
11501;DHT22;5807;51.606;7.624;2022-12-10T07:41:22;-0.70;99.90
11501;DHT22;5807;51.606;7.624;2022-12-10T07:43:50;-1.40;99.90
11501;DHT22;5807;51.606;7.624;2022-12-10T07:46:20;-0.60;99.90
11501;DHT22;5807;51.606;7.624;2022-12-10T07:48:49;-0.70;99.90
11501;DHT22;5807;51.606;7.624;2022-12-10T07:51:17;-0.70;99.90
11501;DHT22;5807;51.606;7.624;2022-12-10T07:53:45;-1.50;99.90
11501;DHT22;5807;51.606;7.624;2022-12-10T07:56:12;-1.00;99.90
11501;DHT22;5807;51.606;7.624;2022-12-10T07:58:43;-1.90;99.90
11501;DHT22;5807;51.606;7.624;2022-12-10T08:01:14;0.30;99.90
11501;DHT22;5807;51.606;7.624;2022-12-10T08:06:10;-1.80;99.90
11501;DHT22;5807;51.606;7.624;2022-12-10T08:08:39;-1.30;99.90
11501;DHT22;5807;51.606;7.624;2022-12-10T08:11:06;-1.30;99.90
11501;DHT22;5807;51.606;7.624;2022-12-10T08:13:37;-1.50;99.90
11501;DHT22;5807;51.606;7.624;2022-12-10T08:16:07;-1.30;99.90
11501;DHT22;5807;51.606;7.624;2022-12-10T08:18:35;-1.20;99.90
11501;DHT22;5807;51.606;7.624;2022-12-10T08:21:04;-1.40;99.90
11501;DHT22;5807;51.606;7.624;2022-12-10T08:23:31;-1.10;99.90
11501;DHT22;5807;51.606;7.624;2022-12-10T08:25:58;1.20;99.90
11501;DHT22;5807;51.606;7.624;2022-12-10T08:28:25;-0.90;99.90
11501;DHT22;5807;51.606;7.624;2022-12-10T08:30:52;-0.80;99.90
11501;DHT22;5807;51.606;7.624;2022-12-10T08:33:20;-0.70;99.90
11501;DHT22;5807;51.606;7.624;2022-12-10T08:35:47;-0.10;99.90
11501;DHT22;5807;51.606;7.624;2022-12-10T08:38:14;-0.60;99.90
11501;DHT22;5807;51.606;7.624;2022-12-10T08:40:41;0.30;99.90
11501;DHT22;5807;51.606;7.624;2022-12-10T08:43:13;-0.20;99.90
11501;DHT22;5807;51.606;7.624;2022-12-10T08:45:40;0.60;99.90
11501;DHT22;5807;51.606;7.624;2022-12-10T08:48:07;-0.20;99.90
11501;DHT22;5807;51.606;7.624;2022-12-10T08:50:35;0.50;99.90
11501;DHT22;5807;51.606;7.624;2022-12-10T08:53:03;0.20;99.90
11501;DHT22;5807;51.606;7.624;2022-12-10T08:55:30;0.40;99.90
11501;DHT22;5807;51.606;7.624;2022-12-10T08:58:16;1.50;99.90
11501;DHT22;5807;51.606;7.624;2022-12-10T09:00:43;0.80;99.90
11501;DHT22;5807;51.606;7.624;2022-12-10T09:03:10;0.80;99.90
11501;DHT22;5807;51.606;7.624;2022-12-10T09:05:45;0.50;99.90
11501;DHT22;5807;51.606;7.624;2022-12-10T09:08:13;0.70;99.90
11501;DHT22;5807;51.606;7.624;2022-12-10T09:10:40;1.00;99.90
11501;DHT22;5807;51.606;7.624;2022-12-10T09:13:07;1.10;99.90
11501;DHT22;5807;51.606;7.624;2022-12-10T09:15:34;1.20;99.90
11501;DHT22;5807;51.606;7.624;2022-12-10T09:18:01;3.00;99.90
11501;DHT22;5807;51.606;7.624;2022-12-10T09:20:28;1.20;99.90
11501;DHT22;5807;51.606;7.624;2022-12-10T09:22:59;1.20;99.90
11501;DHT22;5807;51.606;7.624;2022-12-10T09:25:26;1.30;99.90
11501;DHT22;5807;51.606;7.624;2022-12-10T09:27:53;2.90;99.90
11501;DHT22;5807;51.606;7.624;2022-12-10T09:30:20;1.30;99.90
11501;DHT22;5807;51.606;7.624;2022-12-10T09:32:46;2.20;99.90
11501;DHT22;5807;51.606;7.624;2022-12-10T09:35:13;1.30;99.90
11501;DHT22;5807;51.606;7.624;2022-12-10T09:37:40;1.40;99.90
11501;DHT22;5807;51.606;7.624;2022-12-10T09:42:43;1.50;99.90
11501;DHT22;5807;51.606;7.624;2022-12-10T09:45:18;1.50;99.90
11501;DHT22;5807;51.606;7.624;2022-12-10T09:47:55;1.30;99.90
11501;DHT22;5807;51.606;7.624;2022-12-10T09:50:26;1.90;99.90
11501;DHT22;5807;51.606;7.624;2022-12-10T09:52:55;1.60;99.90
11501;DHT22;5807;51.606;7.624;2022-12-10T09:55:31;1.60;99.90
11501;DHT22;5807;51.606;7.624;2022-12-10T09:57:59;1.60;99.90
11501;DHT22;5807;51.606;7.624;2022-12-10T10:00:32;1.60;99.90
11501;DHT22;5807;51.606;7.624;2022-12-10T10:03:00;1.60;99.90
11501;DHT22;5807;51.606;7.624;2022-12-10T10:05:30;1.80;99.90
11501;DHT22;5807;51.606;7.624;2022-12-10T10:07:59;2.00;99.90
11501;DHT22;5807;51.606;7.624;2022-12-10T10:10:31;1.70;99.90
11501;DHT22;5807;51.606;7.624;2022-12-10T10:13:10;3.70;99.90
11501;DHT22;5807;51.606;7.624;2022-12-10T10:15:40;1.80;99.90
11501;DHT22;5807;51.606;7.624;2022-12-10T10:18:13;1.10;99.90
11501;DHT22;5807;51.606;7.624;2022-12-10T10:20:42;1.80;99.90
11501;DHT22;5807;51.606;7.624;2022-12-10T10:23:09;2.60;99.90
11501;DHT22;5807;51.606;7.624;2022-12-10T10:25:40;2.00;99.90
11501;DHT22;5807;51.606;7.624;2022-12-10T10:28:11;1.80;99.90
11501;DHT22;5807;51.606;7.624;2022-12-10T10:30:41;1.90;99.90
11501;DHT22;5807;51.606;7.624;2022-12-10T10:33:10;1.70;99.90
11501;DHT22;5807;51.606;7.624;2022-12-10T10:35:43;1.80;99.90
11501;DHT22;5807;51.606;7.624;2022-12-10T10:40:50;2.00;99.90
11501;DHT22;5807;51.606;7.624;2022-12-10T10:43:21;2.00;99.90
11501;DHT22;5807;51.606;7.624;2022-12-10T10:45:51;1.90;99.90
11501;DHT22;5807;51.606;7.624;2022-12-10T10:48:21;2.00;99.90
11501;DHT22;5807;51.606;7.624;2022-12-10T10:50:50;2.00;99.90
11501;DHT22;5807;51.606;7.624;2022-12-10T10:53:26;1.90;99.90
11501;DHT22;5807;51.606;7.624;2022-12-10T10:55:58;2.10;99.90
11501;DHT22;5807;51.606;7.624;2022-12-10T10:58:25;2.20;99.90
11501;DHT22;5807;51.606;7.624;2022-12-10T11:00:58;2.20;99.90
11501;DHT22;5807;51.606;7.624;2022-12-10T11:03:26;2.10;99.90
11501;DHT22;5807;51.606;7.624;2022-12-10T11:05:54;2.20;99.90
11501;DHT22;5807;51.606;7.624;2022-12-10T11:08:24;2.10;99.90
11501;DHT22;5807;51.606;7.624;2022-12-10T11:10:58;2.00;99.90
11501;DHT22;5807;51.606;7.624;2022-12-10T11:13:29;2.00;99.90
11501;DHT22;5807;51.606;7.624;2022-12-10T11:15:59;2.00;99.90
11501;DHT22;5807;51.606;7.624;2022-12-10T11:18:32;2.20;99.90
11501;DHT22;5807;51.606;7.624;2022-12-10T11:21:05;2.10;99.90
11501;DHT22;5807;51.606;7.624;2022-12-10T11:23:37;2.20;99.90
11501;DHT22;5807;51.606;7.624;2022-12-10T11:26:45;2.20;99.90
11501;DHT22;5807;51.606;7.624;2022-12-10T11:29:27;2.00;99.90
11501;DHT22;5807;51.606;7.624;2022-12-10T11:32:08;1.10;99.90
11501;DHT22;5807;51.606;7.624;2022-12-10T11:34:46;2.20;99.90
11501;DHT22;5807;51.606;7.624;2022-12-10T11:37:24;3.30;99.90
11501;DHT22;5807;51.606;7.624;2022-12-10T11:40:02;2.50;99.90
11501;DHT22;5807;51.606;7.624;2022-12-10T11:42:42;2.60;99.90
11501;DHT22;5807;51.606;7.624;2022-12-10T11:45:17;2.60;99.90
11501;DHT22;5807;51.606;7.624;2022-12-10T11:47:56;3.20;99.90
11501;DHT22;5807;51.606;7.624;2022-12-10T11:50:36;2.40;99.90
11501;DHT22;5807;51.606;7.624;2022-12-10T11:53:13;2.40;99.90
11501;DHT22;5807;51.606;7.624;2022-12-10T11:55:49;2.20;99.90
11501;DHT22;5807;51.606;7.624;2022-12-10T12:01:18;2.10;99.90
11501;DHT22;5807;51.606;7.624;2022-12-10T12:03:59;1.80;99.90
11501;DHT22;5807;51.606;7.624;2022-12-10T12:06:45;1.70;99.90
11501;DHT22;5807;51.606;7.624;2022-12-10T12:09:20;3.40;99.90
11501;DHT22;5807;51.606;7.624;2022-12-10T12:11:58;2.70;99.90
11501;DHT22;5807;51.606;7.624;2022-12-10T12:14:31;1.40;99.90
11501;DHT22;5807;51.606;7.624;2022-12-10T12:17:03;1.30;99.90
11501;DHT22;5807;51.606;7.624;2022-12-10T12:19:35;1.20;99.90
11501;DHT22;5807;51.606;7.624;2022-12-10T12:22:10;1.30;99.90
11501;DHT22;5807;51.606;7.624;2022-12-10T12:24:40;1.30;99.90
11501;DHT22;5807;51.606;7.624;2022-12-10T12:27:15;1.40;99.90
11501;DHT22;5807;51.606;7.624;2022-12-10T12:29:48;1.50;99.90
11501;DHT22;5807;51.606;7.624;2022-12-10T12:32:20;1.40;99.90
11501;DHT22;5807;51.606;7.624;2022-12-10T12:34:53;1.40;99.90
11501;DHT22;5807;51.606;7.624;2022-12-10T12:37:28;1.50;99.90
11501;DHT22;5807;51.606;7.624;2022-12-10T12:40:02;1.10;99.90
11501;DHT22;5807;51.606;7.624;2022-12-10T12:42:31;1.50;99.90
11501;DHT22;5807;51.606;7.624;2022-12-10T12:45:10;1.80;99.90
11501;DHT22;5807;51.606;7.624;2022-12-10T12:47:43;1.70;99.90
11501;DHT22;5807;51.606;7.624;2022-12-10T12:50:24;1.60;99.90
11501;DHT22;5807;51.606;7.624;2022-12-10T12:52:54;3.10;99.90
11501;DHT22;5807;51.606;7.624;2022-12-10T12:55:26;1.70;99.90
11501;DHT22;5807;51.606;7.624;2022-12-10T12:57:57;3.40;99.90
11501;DHT22;5807;51.606;7.624;2022-12-10T13:00:31;1.10;99.90
11501;DHT22;5807;51.606;7.624;2022-12-10T13:03:15;2.10;99.90
11501;DHT22;5807;51.606;7.624;2022-12-10T13:05:44;2.00;99.90
11501;DHT22;5807;51.606;7.624;2022-12-10T13:08:25;2.10;99.90
11501;DHT22;5807;51.606;7.624;2022-12-10T13:10:53;2.00;99.90
11501;DHT22;5807;51.606;7.624;2022-12-10T13:13:25;1.80;99.90
11501;DHT22;5807;51.606;7.624;2022-12-10T13:15:56;1.10;99.90
11501;DHT22;5807;51.606;7.624;2022-12-10T13:21:31;2.00;99.90
11501;DHT22;5807;51.606;7.624;2022-12-10T13:24:09;1.80;99.90
11501;DHT22;5807;51.606;7.624;2022-12-10T13:26:41;1.80;99.90
11501;DHT22;5807;51.606;7.624;2022-12-10T13:29:27;1.80;99.90
11501;DHT22;5807;51.606;7.624;2022-12-10T13:31:57;3.60;99.90
11501;DHT22;5807;51.606;7.624;2022-12-10T13:34:33;0.90;99.90
11501;DHT22;5807;51.606;7.624;2022-12-10T13:37:27;1.80;99.90
11501;DHT22;5807;51.606;7.624;2022-12-10T13:40:08;2.40;99.90
11501;DHT22;5807;51.606;7.624;2022-12-10T13:42:39;0.80;99.90
11501;DHT22;5807;51.606;7.624;2022-12-10T13:45:27;1.10;99.90
11501;DHT22;5807;51.606;7.624;2022-12-10T13:48:15;1.40;99.90
11501;DHT22;5807;51.606;7.624;2022-12-10T13:50:47;1.20;99.90
11501;DHT22;5807;51.606;7.624;2022-12-10T13:53:21;1.20;99.90
11501;DHT22;5807;51.606;7.624;2022-12-10T13:55:55;1.00;99.90
11501;DHT22;5807;51.606;7.624;2022-12-10T13:58:36;0.70;99.90
11501;DHT22;5807;51.606;7.624;2022-12-10T14:01:12;1.10;99.90
11501;DHT22;5807;51.606;7.624;2022-12-10T14:03:55;1.50;99.90
11501;DHT22;5807;51.606;7.624;2022-12-10T14:06:27;1.40;99.90
11501;DHT22;5807;51.606;7.624;2022-12-10T14:09:02;1.40;99.90
11501;DHT22;5807;51.606;7.624;2022-12-10T14:11:32;1.10;99.90
11501;DHT22;5807;51.606;7.624;2022-12-10T14:14:01;1.40;99.90
11501;DHT22;5807;51.606;7.624;2022-12-10T14:16:31;1.50;99.90
11501;DHT22;5807;51.606;7.624;2022-12-10T14:19:00;0.70;99.90
11501;DHT22;5807;51.606;7.624;2022-12-10T14:21:32;1.50;99.90
11501;DHT22;5807;51.606;7.624;2022-12-10T14:23:59;1.40;99.90
11501;DHT22;5807;51.606;7.624;2022-12-10T14:26:28;1.40;99.90
11501;DHT22;5807;51.606;7.624;2022-12-10T14:28:57;3.30;99.90
11501;DHT22;5807;51.606;7.624;2022-12-10T14:31:28;1.00;99.90
11501;DHT22;5807;51.606;7.624;2022-12-10T14:33:59;3.70;99.90
11501;DHT22;5807;51.606;7.624;2022-12-10T14:36:30;1.20;99.90
11501;DHT22;5807;51.606;7.624;2022-12-10T14:38:58;1.30;99.90
11501;DHT22;5807;51.606;7.624;2022-12-10T14:41:28;1.40;99.90
11501;DHT22;5807;51.606;7.624;2022-12-10T14:43:58;1.30;99.90
11501;DHT22;5807;51.606;7.624;2022-12-10T14:46:30;2.90;99.90
11501;DHT22;5807;51.606;7.624;2022-12-10T14:48:57;1.30;99.90
11501;DHT22;5807;51.606;7.624;2022-12-10T14:51:25;1.30;99.90
11501;DHT22;5807;51.606;7.624;2022-12-10T14:56:26;1.30;99.90
11501;DHT22;5807;51.606;7.624;2022-12-10T14:59:00;1.30;99.90
11501;DHT22;5807;51.606;7.624;2022-12-10T15:01:30;1.00;99.90
11501;DHT22;5807;51.606;7.624;2022-12-10T15:04:01;1.20;99.90
11501;DHT22;5807;51.606;7.624;2022-12-10T15:06:34;1.20;99.90
11501;DHT22;5807;51.606;7.624;2022-12-10T15:09:04;1.10;99.90
11501;DHT22;5807;51.606;7.624;2022-12-10T15:11:32;1.20;99.90
11501;DHT22;5807;51.606;7.624;2022-12-10T15:14:00;1.20;99.90
11501;DHT22;5807;51.606;7.624;2022-12-10T15:16:31;1.20;99.90
11501;DHT22;5807;51.606;7.624;2022-12-10T15:19:13;1.20;99.90
11501;DHT22;5807;51.606;7.624;2022-12-10T15:21:44;0.50;99.90
11501;DHT22;5807;51.606;7.624;2022-12-10T15:24:19;1.10;99.90
11501;DHT22;5807;51.606;7.624;2022-12-10T15:26:47;1.70;99.90
11501;DHT22;5807;51.606;7.624;2022-12-10T15:29:29;0.70;99.90
11501;DHT22;5807;51.606;7.624;2022-12-10T15:31:58;1.10;99.90
11501;DHT22;5807;51.606;7.624;2022-12-10T15:34:26;1.10;99.90
11501;DHT22;5807;51.606;7.624;2022-12-10T15:36:56;0.40;99.90
11501;DHT22;5807;51.606;7.624;2022-12-10T15:39:29;1.10;99.90
11501;DHT22;5807;51.606;7.624;2022-12-10T15:41:57;1.00;99.90
11501;DHT22;5807;51.606;7.624;2022-12-10T15:44:30;2.40;99.90
11501;DHT22;5807;51.606;7.624;2022-12-10T15:47:00;1.40;99.90
11501;DHT22;5807;51.606;7.624;2022-12-10T15:49:28;0.20;99.90
11501;DHT22;5807;51.606;7.624;2022-12-10T15:51:55;1.70;99.90
11501;DHT22;5807;51.606;7.624;2022-12-10T15:54:25;1.00;99.90
11501;DHT22;5807;51.606;7.624;2022-12-10T15:56:54;1.00;99.90
11501;DHT22;5807;51.606;7.624;2022-12-10T15:59:21;1.00;99.90
11501;DHT22;5807;51.606;7.624;2022-12-10T16:01:48;1.40;99.90
11501;DHT22;5807;51.606;7.624;2022-12-10T16:04:15;1.00;99.90
11501;DHT22;5807;51.606;7.624;2022-12-10T16:06:42;-0.30;99.90
11501;DHT22;5807;51.606;7.624;2022-12-10T16:11:36;1.00;99.90
11501;DHT22;5807;51.606;7.624;2022-12-10T16:14:04;1.00;99.90
11501;DHT22;5807;51.606;7.624;2022-12-10T16:16:32;1.00;99.90
11501;DHT22;5807;51.606;7.624;2022-12-10T16:18:59;1.00;99.90
11501;DHT22;5807;51.606;7.624;2022-12-10T16:21:25;2.60;99.90
11501;DHT22;5807;51.606;7.624;2022-12-10T16:23:52;1.00;99.90
11501;DHT22;5807;51.606;7.624;2022-12-10T16:26:21;0.90;99.90
11501;DHT22;5807;51.606;7.624;2022-12-10T16:28:49;0.30;99.90
11501;DHT22;5807;51.606;7.624;2022-12-10T16:31:19;1.00;99.90
11501;DHT22;5807;51.606;7.624;2022-12-10T16:33:46;1.00;99.90
11501;DHT22;5807;51.606;7.624;2022-12-10T16:36:14;0.30;99.90
11501;DHT22;5807;51.606;7.624;2022-12-10T16:38:40;0.50;99.90
11501;DHT22;5807;51.606;7.624;2022-12-10T16:51:24;1.10;99.90
11501;DHT22;5807;51.606;7.624;2022-12-10T16:53:54;0.80;99.90
11501;DHT22;5807;51.606;7.624;2022-12-10T16:56:21;0.60;99.90
11501;DHT22;5807;51.606;7.624;2022-12-10T16:58:48;0.60;99.90
11501;DHT22;5807;51.606;7.624;2022-12-10T17:01:19;1.00;99.90
11501;DHT22;5807;51.606;7.624;2022-12-10T17:03:48;0.80;99.90
11501;DHT22;5807;51.606;7.624;2022-12-10T17:06:15;-1.10;99.90
11501;DHT22;5807;51.606;7.624;2022-12-10T17:08:44;0.90;99.90